Time;durP1;ratioP1;P1;durP2;ratioP2;P2;SDS_P1;SDS_P2;PMS_P1;PMS_P2;Temp;Humidity;BMP_temperature;BMP_pressure;BME280_temperature;BME280_humidity;BME280_pressure;Samples;Min_cycle;Max_cycle;Signal;HPM_P1;HPM_P2
2022/08/15 00:00:50;;;;;;;8.57;1.83;;;28.00;55.40;;;;;;5053912;28;20469;-81
2022/08/15 00:03:27;;;;;;;3.10;1.35;;;28.00;55.10;;;;;;5054212;28;20033;-80
2022/08/15 00:05:58;;;;;;;4.72;1.65;;;27.90;55.10;;;;;;5053747;28;20094;-82
2022/08/15 00:08:26;;;;;;;2.92;1.35;;;28.00;55.10;;;;;;5054307;28;20038;-81
2022/08/15 00:10:53;;;;;;;2.95;1.52;;;27.90;55.50;;;;;;5053787;28;20530;-81
2022/08/15 00:13:24;;;;;;;1.75;1.30;;;27.80;55.40;;;;;;5054023;28;20071;-81
2022/08/15 00:15:51;;;;;;;2.78;1.70;;;27.80;55.30;;;;;;5053318;28;20061;-81
2022/08/15 00:18:19;;;;;;;5.47;1.40;;;27.90;55.20;;;;;;5053801;28;20385;-81
2022/08/15 00:20:44;;;;;;;2.65;1.40;;;27.90;55.30;;;;;;5053796;28;20100;-81
2022/08/15 00:23:13;;;;;;;4.25;1.60;;;28.00;55.50;;;;;;5053821;28;20537;-81
2022/08/15 00:25:44;;;;;;;2.53;1.50;;;28.00;55.30;;;;;;5053874;28;20020;-81
2022/08/15 00:28:09;;;;;;;3.17;1.38;;;27.90;55.10;;;;;;5053443;28;20104;-81
2022/08/15 00:30:39;;;;;;;2.53;1.60;;;28.00;55.30;;;;;;5053606;28;20085;-81
2022/08/15 00:33:05;;;;;;;4.70;1.75;;;27.80;55.20;;;;;;5053498;28;20078;-81
2022/08/15 00:35:39;;;;;;;4.82;1.70;;;27.90;55.30;;;;;;5053701;28;20104;-81
2022/08/15 00:38:26;;;;;;;4.35;1.45;;;27.80;55.30;;;;;;5053532;28;20028;-81
2022/08/15 00:43:55;;;;;;;6.78;1.85;;;27.90;55.40;;;;;;5053201;28;20508;-81
2022/08/15 00:46:21;;;;;;;6.75;1.77;;;27.80;55.70;;;;;;5053137;28;20017;-81
2022/08/15 00:48:50;;;;;;;3.42;1.42;;;27.80;55.60;;;;;;5053382;28;20055;-81
2022/08/15 00:51:21;;;;;;;4.85;1.75;;;27.80;55.70;;;;;;5053266;28;20470;-81
2022/08/15 00:53:55;;;;;;;8.45;1.95;;;27.80;55.90;;;;;;5053230;28;20033;-81
2022/08/15 00:56:24;;;;;;;6.88;1.88;;;27.90;55.90;;;;;;5053302;28;20074;-81
2022/08/15 00:58:51;;;;;;;5.00;1.40;;;27.80;55.90;;;;;;5052799;28;20017;-81
2022/08/15 01:01:17;;;;;;;4.95;1.90;;;27.80;56.10;;;;;;5053280;28;20032;-81
2022/08/15 01:03:47;;;;;;;5.10;2.00;;;27.80;56.40;;;;;;5053038;28;20541;-81
2022/08/15 01:06:13;;;;;;;3.72;1.83;;;27.80;56.70;;;;;;5053405;28;20457;-81
2022/08/15 01:08:42;;;;;;;3.25;1.88;;;27.90;56.60;;;;;;5053062;28;20471;-81
2022/08/15 01:11:14;;;;;;;6.82;2.00;;;27.80;56.90;;;;;;5053080;28;20059;-81
2022/08/15 01:13:41;;;;;;;5.15;1.77;;;27.70;57.00;;;;;;5052775;28;20021;-81
2022/08/15 01:16:07;;;;;;;3.22;1.63;;;27.70;57.30;;;;;;5051750;28;20021;-81
2022/08/15 01:18:33;;;;;;;5.57;2.15;;;27.70;57.20;;;;;;5052980;28;20381;-81
2022/08/15 01:21:07;;;;;;;6.43;2.30;;;27.70;57.30;;;;;;5053557;28;20025;-81
2022/08/15 01:23:46;;;;;;;2.92;2.10;;;27.80;57.40;;;;;;5057037;28;20044;-81
2022/08/15 01:26:15;;;;;;;3.22;2.08;;;27.70;58.30;;;;;;5057007;28;20025;-81
2022/08/15 01:28:45;;;;;;;4.32;2.30;;;27.60;58.10;;;;;;5056706;28;20051;-80
2022/08/15 01:31:15;;;;;;;3.20;2.17;;;27.70;58.10;;;;;;5056982;28;20021;-81
2022/08/15 01:33:53;;;;;;;5.07;2.03;;;27.70;58.10;;;;;;5056874;28;20474;-81
2022/08/15 01:36:21;;;;;;;7.38;2.35;;;27.70;58.10;;;;;;5056979;28;20371;-81
2022/08/15 01:38:59;;;;;;;8.52;2.30;;;27.70;58.10;;;;;;5056814;28;20032;-81
2022/08/15 01:41:50;;;;;;;3.47;1.95;;;27.70;58.10;;;;;;5056653;28;20032;-81
2022/08/15 01:44:39;;;;;;;6.43;2.35;;;27.70;58.10;;;;;;5056632;28;20033;-81
2022/08/15 01:47:30;;;;;;;8.35;2.58;;;27.60;58.20;;;;;;5056851;28;20028;-81
2022/08/15 01:50:07;;;;;;;3.67;1.75;;;27.60;58.30;;;;;;5056540;28;20488;-82
2022/08/15 01:52:53;;;;;;;4.47;2.35;;;27.40;58.80;;;;;;5056874;28;20029;-81
2022/08/15 01:55:26;;;;;;;5.70;2.17;;;27.30;59.40;;;;;;5056593;28;20119;-81
2022/08/15 01:57:51;;;;;;;9.82;2.30;;;27.20;60.30;;;;;;5056285;28;20355;-81
2022/08/15 02:00:18;;;;;;;7.13;2.47;;;27.40;60.20;;;;;;5056492;28;20079;-82
2022/08/15 02:02:44;;;;;;;4.93;2.40;;;27.40;60.00;;;;;;5056632;28;20086;-81
2022/08/15 02:05:09;;;;;;;4.13;2.25;;;27.50;60.10;;;;;;5056218;28;20071;-80
2022/08/15 02:07:35;;;;;;;4.43;2.00;;;27.50;60.20;;;;;;5056215;28;20417;-82
2022/08/15 02:10:02;;;;;;;7.68;2.45;;;27.50;60.20;;;;;;5056295;28;20048;-82
2022/08/15 02:12:33;;;;;;;6.05;2.17;;;27.50;60.30;;;;;;5054605;28;20025;-82
2022/08/15 02:15:00;;;;;;;3.42;2.05;;;27.50;60.50;;;;;;5056080;28;20516;-82
2022/08/15 02:17:26;;;;;;;5.47;2.47;;;27.50;60.30;;;;;;5055968;28;20033;-81
2022/08/15 02:19:52;;;;;;;4.00;2.20;;;27.40;60.60;;;;;;5056082;28;20075;-82
2022/08/15 02:22:22;;;;;;;5.18;2.00;;;27.40;60.50;;;;;;5055998;28;20123;-82
2022/08/15 02:24:48;;;;;;;8.30;2.50;;;27.40;60.70;;;;;;5055717;28;20017;-81
2022/08/15 02:27:13;;;;;;;6.78;2.45;;;27.40;60.70;;;;;;5055996;28;20528;-81
2022/08/15 02:29:41;;;;;;;5.47;2.33;;;27.40;61.00;;;;;;5055922;28;20425;-81
2022/08/15 02:32:17;;;;;;;5.43;2.17;;;27.40;61.20;;;;;;5055803;28;20021;-81
2022/08/15 02:34:44;;;;;;;4.60;2.70;;;27.40;61.30;;;;;;5055849;28;20028;-82
2022/08/15 02:37:11;;;;;;;6.97;2.80;;;27.40;61.50;;;;;;5055764;28;20096;-81
2022/08/15 02:39:38;;;;;;;5.00;2.80;;;27.40;61.60;;;;;;5055402;28;20538;-81
2022/08/15 02:42:04;;;;;;;6.05;3.25;;;27.40;61.90;;;;;;5055520;28;20068;-81
2022/08/15 02:44:30;;;;;;;3.47;2.33;;;27.30;62.10;;;;;;5055611;28;20036;-81
2022/08/15 02:46:56;;;;;;;6.05;2.28;;;27.30;62.10;;;;;;5055812;28;20024;-81
2022/08/15 02:49:23;;;;;;;7.70;2.72;;;27.30;62.30;;;;;;5055466;28;20025;-81
2022/08/15 02:51:49;;;;;;;6.15;2.67;;;27.30;62.70;;;;;;5055679;28;20025;-81
2022/08/15 02:54:17;;;;;;;5.53;2.55;;;27.30;62.80;;;;;;5055574;28;20389;-80
2022/08/15 02:56:44;;;;;;;5.50;2.42;;;27.30;63.00;;;;;;5055519;28;20017;-81
2022/08/15 02:59:10;;;;;;;6.32;2.80;;;27.30;63.20;;;;;;5055305;28;20033;-81
2022/08/15 03:01:38;;;;;;;5.28;2.47;;;27.30;63.20;;;;;;5055350;28;20437;-82
2022/08/15 03:04:07;;;;;;;7.72;2.70;;;27.30;63.40;;;;;;5055386;28;20027;-81
2022/08/15 03:06:33;;;;;;;7.05;2.78;;;27.20;63.50;;;;;;5055207;28;20448;-81
2022/08/15 03:09:06;;;;;;;4.80;2.47;;;27.20;63.40;;;;;;5055035;28;20017;-81
2022/08/15 03:11:38;;;;;;;4.25;2.42;;;27.20;63.70;;;;;;5053770;28;20104;-81
2022/08/15 03:14:07;;;;;;;3.97;2.55;;;27.20;63.80;;;;;;5055013;28;20519;-81
2022/08/15 03:16:36;;;;;;;3.97;2.28;;;27.20;63.80;;;;;;5055231;28;20029;-81
2022/08/15 03:19:03;;;;;;;3.63;2.40;;;27.20;63.80;;;;;;5037015;28;20165;-81
2022/08/15 03:21:29;;;;;;;3.13;2.63;;;27.20;63.80;;;;;;5034031;28;20467;-82
2022/08/15 03:23:55;;;;;;;5.13;2.40;;;27.20;64.40;;;;;;5033076;28;20398;-81
2022/08/15 03:26:23;;;;;;;8.23;2.42;;;27.10;63.80;;;;;;5034230;28;20025;-80
2022/08/15 03:28:48;;;;;;;6.13;2.65;;;27.10;64.00;;;;;;5035073;28;20048;-81
2022/08/15 03:31:14;;;;;;;6.22;2.53;;;27.10;63.90;;;;;;5034840;28;20021;-81
2022/08/15 03:33:42;;;;;;;5.50;2.90;;;27.10;64.10;;;;;;5035012;28;20017;-81
2022/08/15 03:36:08;;;;;;;5.15;2.55;;;27.10;64.00;;;;;;5034341;28;20021;-82
2022/08/15 03:38:34;;;;;;;5.07;2.47;;;27.10;64.10;;;;;;5034715;28;20099;-81
2022/08/15 03:41:00;;;;;;;3.65;2.13;;;27.00;64.00;;;;;;5034818;28;20433;-82
2022/08/15 03:43:29;;;;;;;5.93;2.45;;;27.00;64.00;;;;;;5034291;28;20540;-81
2022/08/15 03:46:00;;;;;;;5.68;2.22;;;27.10;64.20;;;;;;5034423;28;20022;-81
2022/08/15 03:48:29;;;;;;;5.50;2.55;;;27.10;64.10;;;;;;5034523;28;20021;-81
2022/08/15 03:50:56;;;;;;;3.88;2.40;;;27.00;64.00;;;;;;5034416;28;20029;-81
2022/08/15 03:53:22;;;;;;;3.97;2.00;;;27.00;63.90;;;;;;5034224;28;20167;-81
2022/08/15 03:55:48;;;;;;;4.60;1.90;;;27.00;64.00;;;;;;5034324;28;20032;-81
2022/08/15 03:58:15;;;;;;;3.67;2.38;;;27.00;63.80;;;;;;5034337;28;20025;-81
2022/08/15 04:00:45;;;;;;;5.80;2.00;;;26.90;64.10;;;;;;5034200;28;20029;-80
2022/08/15 04:03:17;;;;;;;3.65;2.75;;;27.00;64.10;;;;;;5034049;28;20037;-81
2022/08/15 04:05:49;;;;;;;5.85;2.30;;;27.00;64.20;;;;;;5033973;28;20076;-80
2022/08/15 04:08:17;;;;;;;6.75;2.40;;;27.00;64.30;;;;;;5033995;28;20048;-81
2022/08/15 04:10:43;;;;;;;5.70;2.15;;;27.00;64.10;;;;;;5033934;28;20442;-81
2022/08/15 04:13:10;;;;;;;6.68;2.55;;;27.00;64.30;;;;;;5034091;28;20037;-81
2022/08/15 04:15:37;;;;;;;4.15;2.10;;;26.90;64.30;;;;;;5034004;28;20024;-81
2022/08/15 04:18:03;;;;;;;3.05;2.10;;;26.80;64.50;;;;;;5033918;28;20068;-81
2022/08/15 04:20:29;;;;;;;3.78;2.20;;;26.80;64.60;;;;;;5034009;28;20026;-80
2022/08/15 04:22:55;;;;;;;5.88;2.22;;;26.90;64.50;;;;;;5033430;28;20552;-80
2022/08/15 04:25:27;;;;;;;5.43;2.35;;;26.80;64.40;;;;;;5033783;28;20435;-82
2022/08/15 04:27:59;;;;;;;3.92;2.50;;;26.80;64.70;;;;;;5033721;28;20100;-81
2022/08/15 04:30:31;;;;;;;4.75;2.15;;;26.80;64.70;;;;;;5033772;28;20021;-81
2022/08/15 04:33:17;;;;;;;4.07;2.03;;;26.80;64.70;;;;;;5033756;28;20025;-81
2022/08/15 04:35:46;;;;;;;4.78;2.30;;;26.80;64.70;;;;;;5033235;28;20021;-81
2022/08/15 04:38:12;;;;;;;6.13;2.42;;;26.80;64.70;;;;;;5033501;28;20029;-81
2022/08/15 04:40:38;;;;;;;3.72;2.17;;;26.80;64.90;;;;;;5033682;28;20063;-81
2022/08/15 04:43:04;;;;;;;3.95;2.35;;;26.80;64.70;;;;;;5033482;28;20069;-80
2022/08/15 04:45:32;;;;;;;3.95;2.30;;;26.80;65.00;;;;;;5032303;28;20406;-81
2022/08/15 04:48:02;;;;;;;3.70;2.10;;;26.80;65.00;;;;;;5033372;28;20034;-81
2022/08/15 04:50:34;;;;;;;3.60;2.17;;;26.80;65.10;;;;;;5033343;28;20108;-81
2022/08/15 04:53:00;;;;;;;4.57;2.35;;;26.80;65.00;;;;;;5033393;28;20025;-81
2022/08/15 04:55:27;;;;;;;2.60;2.13;;;26.80;65.70;;;;;;5032560;28;20033;-81
2022/08/15 04:57:54;;;;;;;3.08;2.33;;;26.80;64.80;;;;;;5033147;28;20045;-81
2022/08/15 05:00:23;;;;;;;2.60;2.15;;;26.80;65.20;;;;;;5032660;28;20088;-81
2022/08/15 05:03:13;;;;;;;2.67;2.13;;;26.80;65.10;;;;;;5033977;28;20486;-82
2022/08/15 05:05:42;;;;;;;4.75;2.35;;;26.70;65.50;;;;;;5032005;28;20470;-80
2022/08/15 05:08:09;;;;;;;2.38;1.95;;;26.70;65.50;;;;;;5031059;28;20129;-80
2022/08/15 05:10:34;;;;;;;5.32;2.80;;;26.70;65.20;;;;;;5033404;28;20022;-79
2022/08/15 05:13:22;;;;;;;3.33;2.10;;;26.70;65.70;;;;;;5031662;28;20371;-81
2022/08/15 05:15:48;;;;;;;5.28;2.33;;;26.70;65.30;;;;;;5033090;28;20093;-81
2022/08/15 05:18:14;;;;;;;2.90;1.90;;;26.70;65.80;;;;;;5033107;28;20089;-81
2022/08/15 05:20:41;;;;;;;2.85;2.15;;;26.70;65.60;;;;;;5048224;28;20092;-81
2022/08/15 05:23:10;;;;;;;5.40;2.58;;;26.70;65.40;;;;;;5033078;28;20026;-81
2022/08/15 05:25:39;;;;;;;5.50;2.80;;;26.70;65.80;;;;;;5033072;28;20022;-81
2022/08/15 05:28:05;;;;;;;3.03;2.53;;;26.70;65.90;;;;;;5032979;28;20032;-81
2022/08/15 05:30:32;;;;;;;4.20;2.17;;;26.70;65.90;;;;;;5033028;28;20104;-81
2022/08/15 05:33:12;;;;;;;6.32;2.72;;;26.70;65.70;;;;;;5033019;28;20022;-81
2022/08/15 05:35:42;;;;;;;3.92;2.45;;;26.70;66.20;;;;;;5032601;28;20025;-81
2022/08/15 05:38:14;;;;;;;5.53;2.92;;;26.70;65.90;;;;;;5032893;28;20024;-81
2022/08/15 05:40:53;;;;;;;;;;;26.70;66.30;;;;;;5033453;28;20032;-81
2022/08/15 05:43:26;;;;;;;3.55;2.25;;;26.80;66.60;;;;;;5032677;28;19917;-82
2022/08/15 05:45:59;;;;;;;3.17;2.63;;;26.70;66.60;;;;;;5032856;28;20034;-80
2022/08/15 05:48:31;;;;;;;2.55;2.22;;;26.60;66.90;;;;;;5032388;28;20053;-80
2022/08/15 05:51:10;;;;;;;2.50;1.90;;;26.60;66.60;;;;;;5032974;28;20033;-80
2022/08/15 05:54:19;;;;;;;4.85;2.45;;;26.60;67.10;;;;;;5032655;28;20036;-81
2022/08/15 05:56:54;;;;;;;5.80;2.58;;;26.60;67.30;;;;;;4975020;28;20105;-81
2022/08/15 05:59:23;;;;;;;4.70;2.13;;;26.60;67.10;;;;;;5028821;28;20375;-81
2022/08/15 06:01:53;;;;;;;5.28;2.53;;;26.60;66.50;;;;;;5031404;28;20478;-80
2022/08/15 06:04:55;;;;;;;7.05;2.65;;;26.60;67.00;;;;;;5032304;28;20022;-81
2022/08/15 06:07:23;;;;;;;7.25;3.00;;;26.60;67.60;;;;;;5014060;28;20498;-81
2022/08/15 06:09:55;;;;;;;5.43;2.28;;;26.50;67.50;;;;;;5036294;28;20052;-81
2022/08/15 06:12:25;;;;;;;5.30;2.30;;;26.50;67.50;;;;;;5036182;28;20032;-81
2022/08/15 06:14:55;;;;;;;5.07;2.25;;;26.50;67.40;;;;;;5036605;28;20025;-81
2022/08/15 06:17:40;;;;;;;4.35;2.50;;;26.50;67.30;;;;;;5035609;28;20028;-81
2022/08/15 06:20:09;;;;;;;4.18;2.28;;;26.50;67.80;;;;;;5036198;28;20021;-81
2022/08/15 06:22:46;;;;;;;3.38;2.30;;;26.50;67.10;;;;;;5036144;28;20041;-81
2022/08/15 06:25:24;;;;;;;4.45;2.65;;;26.50;67.50;;;;;;5034632;28;20364;-81
2022/08/15 06:28:11;;;;;;;3.95;2.47;;;26.50;67.70;;;;;;5036202;28;20018;-81
2022/08/15 06:31:05;;;;;;;2.88;2.40;;;26.50;68.00;;;;;;5035996;28;20033;-81
2022/08/15 06:33:40;;;;;;;5.38;2.85;;;26.60;67.60;;;;;;5034394;28;20088;-81
2022/08/15 06:36:27;;;;;;;3.65;2.30;;;26.50;68.20;;;;;;5035909;28;20022;-81
2022/08/15 06:39:34;;;;;;;4.38;2.60;;;26.50;68.20;;;;;;5035559;28;20036;-81
2022/08/15 06:42:07;;;;;;;7.15;2.78;;;26.50;68.60;;;;;;5035853;28;20021;-81
2022/08/15 06:44:33;;;;;;;3.03;2.50;;;26.50;68.20;;;;;;5035831;28;20101;-80
2022/08/15 06:47:07;;;;;;;3.65;2.35;;;26.50;68.70;;;;;;5035406;28;20443;-80
2022/08/15 06:49:40;;;;;;;3.42;2.60;;;26.50;68.00;;;;;;5035518;28;20025;-81
2022/08/15 06:52:07;;;;;;;3.85;2.72;;;26.50;68.30;;;;;;5035571;28;20029;-81
2022/08/15 06:54:35;;;;;;;4.50;2.85;;;26.50;68.30;;;;;;5035466;28;20064;-80
2022/08/15 06:57:39;;;;;;;4.20;2.80;;;26.50;68.30;;;;;;5035470;28;20509;-80
2022/08/15 07:00:11;;;;;;;5.78;3.05;;;26.50;68.20;;;;;;5019706;28;20047;-81
2022/08/15 07:02:40;;;;;;;;;;;26.60;68.80;;;;;;5035416;28;20478;-79
2022/08/15 07:05:35;;;;;;;5.47;2.55;;;26.60;67.30;;;;;;5035344;28;19905;-80
2022/08/15 07:08:01;;;;;;;4.50;3.00;;;26.60;67.90;;;;;;5026411;28;20060;-80
2022/08/15 07:10:52;;;;;;;2.20;1.95;;;26.60;67.20;;;;;;5035216;28;20376;-80
2022/08/15 07:13:24;;;;;;;2.92;2.40;;;26.50;67.40;;;;;;5034061;28;20021;-80
2022/08/15 07:16:00;;;;;;;6.25;2.60;;;26.60;67.90;;;;;;5034677;28;20104;-80
2022/08/15 07:18:28;;;;;;;4.45;2.80;;;26.50;67.50;;;;;;5034483;28;20044;-81
2022/08/15 07:21:11;;;;;;;5.20;2.75;;;26.60;67.80;;;;;;5034832;28;20053;-81
2022/08/15 07:24:02;;;;;;;3.88;2.50;;;26.60;68.30;;;;;;5034912;28;20087;-80
2022/08/15 07:26:29;;;;;;;4.00;2.53;;;26.60;68.60;;;;;;5034788;28;20100;-81
2022/08/15 07:28:59;;;;;;;3.38;2.70;;;26.60;68.50;;;;;;5035098;28;20532;-80
2022/08/15 07:31:33;;;;;;;5.13;3.17;;;26.60;68.50;;;;;;5034583;28;20462;-80
2022/08/15 07:34:21;;;;;;;6.97;2.88;;;26.60;69.30;;;;;;5034890;28;20017;-80
2022/08/15 07:36:58;;;;;;;3.88;2.78;;;26.60;69.40;;;;;;5035187;28;20033;-80
2022/08/15 07:39:37;;;;;;;4.00;3.30;;;26.60;70.00;;;;;;5034901;28;20073;-81
2022/08/15 07:42:15;;;;;;;6.10;2.88;;;26.50;69.80;;;;;;5034606;28;20466;-80
2022/08/15 07:44:57;;;;;;;4.25;3.10;;;26.60;69.30;;;;;;5034445;28;20017;-80
2022/08/15 07:47:29;;;;;;;5.85;3.70;;;26.60;69.90;;;;;;5034498;28;20025;-80
2022/08/15 07:49:59;;;;;;;5.40;3.53;;;26.60;70.10;;;;;;5034659;28;20037;-80
2022/08/15 07:52:25;;;;;;;6.38;3.53;;;26.50;70.70;;;;;;5034314;28;20025;-80
2022/08/15 07:54:55;;;;;;;3.25;2.95;;;26.50;70.60;;;;;;5034683;28;20474;-79
2022/08/15 07:57:23;;;;;;;4.43;3.25;;;26.50;70.30;;;;;;5034499;28;20021;-79
2022/08/15 08:00:11;;;;;;;6.07;3.40;;;26.60;70.30;;;;;;5034071;28;20493;-79
2022/08/15 08:02:58;;;;;;;5.93;3.33;;;26.50;69.10;;;;;;5034078;28;20045;-80
2022/08/15 08:05:29;;;;;;;5.35;3.05;;;26.60;69.40;;;;;;5034156;28;20036;-79
2022/08/15 08:07:57;;;;;;;4.10;3.08;;;26.60;69.50;;;;;;5033982;28;20025;-80
2022/08/15 08:10:40;;;;;;;5.40;2.70;;;26.60;70.10;;;;;;5034308;28;20059;-81
2022/08/15 08:13:35;;;;;;;5.43;3.28;;;26.60;68.60;;;;;;5033750;28;20640;-80
2022/08/15 08:16:24;;;;;;;3.60;3.22;;;26.60;69.80;;;;;;5049260;28;20413;-80
2022/08/15 08:19:10;;;;;;;5.95;4.18;;;26.60;69.70;;;;;;5033759;28;20113;-80
2022/08/15 08:21:58;;;;;;;4.63;3.35;;;26.60;70.70;;;;;;5033671;28;20484;-80
2022/08/15 08:24:46;;;;;;;7.93;3.25;;;26.60;70.30;;;;;;5034038;28;20025;-80
2022/08/15 08:27:30;;;;;;;4.18;2.80;;;26.70;70.50;;;;;;5033866;28;20386;-79
2022/08/15 08:30:09;;;;;;;4.38;3.85;;;26.70;68.70;;;;;;5033752;28;20030;-79
2022/08/15 08:33:04;;;;;;;4.57;2.72;;;26.70;70.40;;;;;;5033524;28;20032;-79
2022/08/15 08:35:50;;;;;;;4.95;3.45;;;26.70;69.10;;;;;;5033675;28;20091;-79
2022/08/15 08:38:27;;;;;;;4.18;2.80;;;26.70;69.30;;;;;;5033510;28;20025;-79
2022/08/15 08:44:11;;;;;;;4.80;3.47;;;26.70;69.80;;;;;;5033468;28;20076;-80
2022/08/15 08:46:58;;;;;;;3.28;2.97;;;26.70;69.30;;;;;;5033394;28;20116;-79
2022/08/15 08:49:41;;;;;;;3.75;2.83;;;26.80;69.60;;;;;;5033702;28;20382;-80
2022/08/15 08:52:19;;;;;;;3.15;2.85;;;26.70;68.70;;;;;;5033317;28;20036;-81
2022/08/15 08:54:57;;;;;;;3.95;3.55;;;26.70;69.10;;;;;;5033518;28;20132;-81
2022/08/15 08:57:27;;;;;;;5.55;3.15;;;26.80;69.90;;;;;;5033163;28;20061;-81
2022/08/15 09:00:02;;;;;;;6.70;3.72;;;26.80;70.60;;;;;;5033315;28;20024;-81
2022/08/15 09:02:35;;;;;;;7.80;4.43;;;26.70;71.10;;;;;;5033156;28;20187;-81
2022/08/15 09:05:24;;;;;;;6.85;4.10;;;26.80;71.40;;;;;;5033331;28;20096;-81
2022/08/15 09:07:56;;;;;;;4.45;3.38;;;26.80;72.30;;;;;;5033154;28;20040;-80
2022/08/15 09:10:32;;;;;;;3.35;2.50;;;26.80;70.30;;;;;;5033110;28;20382;-81
2022/08/15 09:15:47;;;;;;;6.05;3.97;;;26.80;70.90;;;;;;5032993;28;20095;-80
2022/08/15 09:18:21;;;;;;;6.25;4.00;;;26.90;71.60;;;;;;5033441;28;20056;-80
2022/08/15 09:20:48;;;;;;;4.85;3.42;;;26.90;71.20;;;;;;5033256;28;20363;-81
2022/08/15 09:23:15;;;;;;;4.40;2.80;;;26.90;70.60;;;;;;5033020;28;20036;-81
2022/08/15 09:25:48;;;;;;;6.25;3.50;;;26.90;69.00;;;;;;5032642;28;20028;-80
2022/08/15 09:28:34;;;;;;;4.50;4.10;;;26.90;70.70;;;;;;5032948;28;20088;-80
2022/08/15 09:31:23;;;;;;;3.20;2.88;;;26.90;72.10;;;;;;5033156;28;20026;-81
2022/08/15 09:33:55;;;;;;;6.90;3.20;;;27.00;70.10;;;;;;5032892;28;20021;-81
2022/08/15 09:36:45;;;;;;;3.17;2.55;;;27.00;69.90;;;;;;5032923;28;20490;-81
2022/08/15 09:39:36;;;;;;;5.03;3.83;;;27.00;69.40;;;;;;5032986;28;20018;-81
2022/08/15 09:42:11;;;;;;;3.60;2.88;;;27.00;70.00;;;;;;5033298;28;20474;-81
2022/08/15 09:44:45;;;;;;;5.18;3.35;;;27.00;69.00;;;;;;5036812;28;20029;-81
2022/08/15 09:47:42;;;;;;;5.82;3.60;;;27.00;70.50;;;;;;5036854;28;20017;-81
2022/08/15 09:50:37;;;;;;;4.25;2.42;;;27.00;69.40;;;;;;5036930;28;20057;-80
2022/08/15 09:53:03;;;;;;;3.20;2.70;;;27.00;68.40;;;;;;5036675;28;20057;-81
2022/08/15 09:55:44;;;;;;;4.75;3.30;;;27.10;68.50;;;;;;5035132;28;20054;-81
2022/08/15 09:58:26;;;;;;;2.97;2.53;;;27.10;69.20;;;;;;5036491;28;20500;-81
2022/08/15 10:01:07;;;;;;;5.38;2.78;;;27.10;68.50;;;;;;5036564;28;20478;-80
2022/08/15 10:04:05;;;;;;;3.67;2.40;;;27.10;68.10;;;;;;5036354;28;20042;-80
2022/08/15 10:06:52;;;;;;;3.03;2.72;;;27.10;68.50;;;;;;5031339;28;20041;-81
2022/08/15 10:09:18;;;;;;;4.40;2.40;;;27.10;68.30;;;;;;5034942;28;20040;-81
2022/08/15 10:11:47;;;;;;;3.88;2.60;;;27.20;68.10;;;;;;5035094;28;20068;-80
2022/08/15 10:14:21;;;;;;;3.38;2.85;;;27.20;68.40;;;;;;5036296;28;20354;-80
2022/08/15 10:17:21;;;;;;;3.08;2.70;;;27.20;68.40;;;;;;5036106;28;20114;-81
2022/08/15 10:19:48;;;;;;;4.32;2.42;;;27.20;68.30;;;;;;5020239;28;20045;-81
2022/08/15 10:22:24;;;;;;;2.90;2.22;;;27.20;67.90;;;;;;5034918;28;20026;-81
2022/08/15 10:25:11;;;;;;;3.28;2.72;;;27.20;68.00;;;;;;5035867;28;20060;-81
2022/08/15 10:28:20;;;;;;;3.13;2.63;;;27.20;68.10;;;;;;5036051;28;20104;-80
2022/08/15 10:31:09;;;;;;;3.10;2.33;;;27.20;68.30;;;;;;5035219;28;20386;-81
2022/08/15 10:33:39;;;;;;;3.90;2.58;;;27.20;68.10;;;;;;5015809;28;20051;-81
2022/08/15 10:36:14;;;;;;;3.47;2.60;;;27.20;68.20;;;;;;5035712;28;20013;-80
2022/08/15 10:38:45;;;;;;;2.50;2.30;;;27.20;68.40;;;;;;5035687;28;20057;-80
2022/08/15 10:41:37;;;;;;;3.33;2.80;;;27.20;68.20;;;;;;5035766;28;20483;-80
2022/08/15 10:44:20;;;;;;;2.47;2.20;;;27.30;68.10;;;;;;5035598;28;20029;-81
2022/08/15 10:47:00;;;;;;;4.10;2.58;;;27.30;68.10;;;;;;5035730;28;20029;-80
2022/08/15 10:50:07;;;;;;;3.00;2.65;;;27.30;68.10;;;;;;5034334;28;20034;-81
2022/08/15 10:52:52;;;;;;;2.97;2.67;;;27.30;68.00;;;;;;5035461;28;20088;-80
2022/08/15 10:55:27;;;;;;;3.03;2.72;;;27.30;68.10;;;;;;5034565;28;20033;-80
2022/08/15 10:58:19;;;;;;;4.93;2.13;;;27.30;68.00;;;;;;5035371;28;20534;-80
2022/08/15 11:00:51;;;;;;;3.78;2.80;;;27.30;68.00;;;;;;5035297;28;20060;-81
2022/08/15 11:03:23;;;;;;;3.13;2.70;;;27.30;67.80;;;;;;5035390;28;20032;-81
2022/08/15 11:06:05;;;;;;;3.85;2.60;;;27.30;67.80;;;;;;5035037;28;20038;-81
2022/08/15 11:08:31;;;;;;;3.75;2.67;;;27.30;67.80;;;;;;5035115;28;20026;-81
2022/08/15 11:11:07;;;;;;;3.55;2.72;;;27.40;67.70;;;;;;5035152;28;20029;-79
2022/08/15 11:13:35;;;;;;;3.95;2.60;;;27.40;67.80;;;;;;5035651;28;20025;-80
2022/08/15 11:16:18;;;;;;;2.95;2.35;;;27.40;67.70;;;;;;5035092;28;20025;-80
2022/08/15 11:18:55;;;;;;;4.15;2.70;;;27.40;67.80;;;;;;5035137;28;20032;-80
2022/08/15 11:21:31;;;;;;;2.42;2.10;;;27.40;67.70;;;;;;5034756;28;20151;-80
2022/08/15 11:24:01;;;;;;;2.92;2.60;;;27.40;67.60;;;;;;5035116;28;20033;-80
2022/08/15 11:26:31;;;;;;;4.28;2.50;;;27.40;67.60;;;;;;5034836;28;20042;-80
2022/08/15 11:29:23;;;;;;;2.47;2.28;;;27.40;67.50;;;;;;5034806;28;20029;-80
2022/08/15 11:31:55;;;;;;;2.70;2.35;;;27.40;67.60;;;;;;5034622;28;20068;-80
2022/08/15 11:34:28;;;;;;;2.92;2.35;;;27.40;67.60;;;;;;5034878;28;20379;-79
2022/08/15 11:37:00;;;;;;;3.80;2.58;;;27.40;67.60;;;;;;5034150;28;20025;-80
2022/08/15 11:39:29;;;;;;;3.10;2.35;;;27.40;67.60;;;;;;5034680;28;20025;-79
2022/08/15 11:42:00;;;;;;;3.10;2.42;;;27.40;67.50;;;;;;5034401;28;20140;-80
2022/08/15 11:44:36;;;;;;;2.80;2.40;;;27.40;67.40;;;;;;5034676;28;20086;-80
2022/08/15 11:47:05;;;;;;;2.42;2.22;;;27.40;67.30;;;;;;5048844;28;20037;-80
2022/08/15 11:49:34;;;;;;;4.82;2.55;;;27.40;67.40;;;;;;5034608;28;20052;-80
2022/08/15 11:52:04;;;;;;;3.03;2.38;;;27.40;67.20;;;;;;5033867;28;20022;-80
2022/08/15 11:54:30;;;;;;;3.45;2.30;;;27.50;67.30;;;;;;5034425;28;20032;-80
2022/08/15 11:57:01;;;;;;;3.55;2.80;;;27.40;67.40;;;;;;5034367;28;20026;-80
2022/08/15 11:59:28;;;;;;;3.30;2.45;;;27.40;67.40;;;;;;5034471;28;20025;-80
2022/08/15 12:02:06;;;;;;;2.85;2.45;;;27.40;67.30;;;;;;5034059;28;20390;-80
2022/08/15 12:04:35;;;;;;;4.40;3.00;;;27.50;67.40;;;;;;5033845;28;20557;-80
2022/08/15 12:07:19;;;;;;;2.83;2.38;;;27.50;67.10;;;;;;5033809;28;20025;-80
2022/08/15 12:10:07;;;;;;;2.72;2.47;;;27.50;67.20;;;;;;5034714;28;20429;-80
2022/08/15 12:12:45;;;;;;;2.90;2.60;;;27.50;67.20;;;;;;5034010;28;20022;-80
2022/08/15 12:15:32;;;;;;;2.97;2.55;;;27.50;67.00;;;;;;5034361;28;20030;-80
2022/08/15 12:18:22;;;;;;;2.42;2.22;;;27.50;66.90;;;;;;5033754;28;20035;-80
2022/08/15 12:20:59;;;;;;;4.20;2.40;;;27.50;67.00;;;;;;5028863;28;20037;-80
2022/08/15 12:23:35;;;;;;;2.80;2.60;;;27.50;67.10;;;;;;5033685;28;20043;-80
2022/08/15 12:26:07;;;;;;;4.82;2.85;;;27.50;67.10;;;;;;5034026;28;20387;-80
2022/08/15 12:28:36;;;;;;;4.07;2.63;;;27.50;66.90;;;;;;5033893;28;20104;-80
2022/08/15 12:31:04;;;;;;;2.85;2.40;;;27.50;67.00;;;;;;5033877;28;20024;-80
2022/08/15 12:33:31;;;;;;;3.47;2.60;;;27.50;67.00;;;;;;5033705;28;20032;-80
2022/08/15 12:35:58;;;;;;;2.80;2.40;;;27.50;67.00;;;;;;5033325;28;20384;-80
2022/08/15 12:38:24;;;;;;;2.85;2.30;;;27.50;66.80;;;;;;5049022;28;20010;-80
2022/08/15 12:40:50;;;;;;;3.60;2.85;;;27.60;66.80;;;;;;5033628;28;20110;-80
2022/08/15 12:43:16;;;;;;;4.65;2.72;;;27.60;66.70;;;;;;5033418;28;20044;-80
2022/08/15 12:45:42;;;;;;;3.47;2.28;;;27.60;66.50;;;;;;5033546;28;20059;-79
2022/08/15 12:48:22;;;;;;;2.80;2.42;;;27.60;66.70;;;;;;5033243;28;20525;-79
2022/08/15 12:50:48;;;;;;;3.42;2.80;;;27.60;66.80;;;;;;5033734;28;20028;-79
2022/08/15 12:53:14;;;;;;;3.85;2.80;;;27.60;67.10;;;;;;5033153;28;20033;-79
2022/08/15 12:55:41;;;;;;;2.75;2.50;;;27.60;66.50;;;;;;5033594;28;20025;-79
2022/08/15 12:58:08;;;;;;;3.00;2.63;;;27.70;66.40;;;;;;5033343;28;20025;-80
2022/08/15 13:00:35;;;;;;;3.08;2.25;;;27.60;66.30;;;;;;5033314;28;20101;-80
2022/08/15 13:03:28;;;;;;;3.20;2.67;;;27.60;66.40;;;;;;5032699;28;20029;-79
2022/08/15 13:06:11;;;;;;;3.53;2.47;;;27.70;66.40;;;;;;5031525;28;20065;-80
2022/08/15 13:08:37;;;;;;;3.50;2.70;;;27.70;66.30;;;;;;5033073;28;20412;-80
2022/08/15 13:11:03;;;;;;;3.45;2.60;;;27.70;66.30;;;;;;5033083;28;20022;-80
2022/08/15 13:13:28;;;;;;;2.70;2.50;;;27.70;66.20;;;;;;5032959;28;20030;-79
2022/08/15 13:15:54;;;;;;;5.70;2.72;;;27.70;66.40;;;;;;5048230;28;20527;-80
2022/08/15 13:18:23;;;;;;;3.55;2.65;;;27.70;66.20;;;;;;5032371;28;20060;-79
2022/08/15 13:23:38;;;;;;;2.92;2.65;;;27.70;66.10;;;;;;5032987;28;20112;-79
2022/08/15 13:26:11;;;;;;;3.67;2.38;;;27.70;66.10;;;;;;5032894;28;20024;-79
2022/08/15 13:28:41;;;;;;;2.80;2.60;;;27.70;66.00;;;;;;5033119;28;20022;-80
2022/08/15 13:31:13;;;;;;;5.30;2.50;;;27.70;66.10;;;;;;5033065;28;20360;-80
2022/08/15 13:33:40;;;;;;;3.47;2.85;;;27.70;66.10;;;;;;5033192;28;20621;-80